Time;durP1;ratioP1;P1;durP2;ratioP2;P2;SDS_P1;SDS_P2;PMS_P1;PMS_P2;Temp;Humidity;BMP_temperature;BMP_pressure;BME280_temperature;BME280_humidity;BME280_pressure;Samples;Min_cycle;Max_cycle;Signal;HPM_P1;HPM_P2
2023/03/13 00:00:51;;;;;;;;;;;;;;;19.71;29.55;101278.79;103623;1308;61454;-81
2023/03/13 00:03:17;;;;;;;;;;;;;;;19.70;29.44;101282.75;103528;1309;61327;-81
2023/03/13 00:05:42;;;;;;;;;;;;;;;19.70;29.46;101278.13;103773;1308;61318;-81
2023/03/13 00:08:08;;;;;;;;;;;;;;;19.71;29.39;101277.04;103685;1311;61364;-81
2023/03/13 00:10:37;;;;;;;;;;;;;;;19.70;29.42;101276.89;103599;1308;61371;-81
2023/03/13 00:13:05;;;;;;;;;;;;;;;19.69;29.46;101276.04;103818;1308;61862;-81
2023/03/13 00:15:31;;;;;;;;;;;;;;;19.69;29.52;101276.04;103780;1309;72579;-81
2023/03/13 00:17:57;;;;;;;;;;;;;;;19.69;29.36;101278.19;103549;1314;61361;-81
2023/03/13 00:20:22;;;;;;;;;;;;;;;19.69;29.51;101282.31;103610;1311;61314;-81
2023/03/13 00:22:48;;;;;;;;;;;;;;;19.69;29.43;101284.66;103639;1308;59564;-81
2023/03/13 00:25:13;;;;;;;;;;;;;;;19.68;29.47;101281.45;103637;1309;61279;-81
2023/03/13 00:27:39;;;;;;;;;;;;;;;19.68;29.46;101284.14;103544;1308;72561;-81
2023/03/13 00:30:04;;;;;;;;;;;;;;;19.68;29.49;101285.75;103566;1309;61426;-81
2023/03/13 00:32:30;;;;;;;;;;;;;;;19.68;29.47;101285.59;103585;1308;61301;-81
2023/03/13 00:34:56;;;;;;;;;;;;;;;19.67;29.41;101283.48;103827;1308;61259;-80
2023/03/13 00:37:21;;;;;;;;;;;;;;;19.67;29.26;101287.77;103594;1308;61300;-80
2023/03/13 00:39:47;;;;;;;;;;;;;;;19.67;29.49;101287.60;103560;1313;73704;-81
2023/03/13 00:42:12;;;;;;;;;;;;;;;19.67;29.50;101287.06;103566;1308;61346;-81
2023/03/13 00:44:38;;;;;;;;;;;;;;;19.66;29.43;101281.40;103415;1308;61397;-81
2023/03/13 00:47:04;;;;;;;;;;;;;;;19.66;29.31;101280.15;103599;1308;59381;-81
2023/03/13 00:49:30;;;;;;;;;;;;;;;19.65;29.37;101277.36;103610;1308;62379;-81
2023/03/13 00:51:55;;;;;;;;;;;;;;;19.65;29.37;101273.25;103586;1308;61295;-81
2023/03/13 00:54:33;;;;;;;;;;;;;;;19.65;29.29;101275.58;103657;1308;61501;-81
2023/03/13 00:56:59;;;;;;;;;;;;;;;19.64;29.42;101275.61;103764;1308;61261;-80
2023/03/13 00:59:24;;;;;;;;;;;;;;;19.65;29.41;101278.09;103808;1308;61483;-80
2023/03/13 01:01:51;;;;;;;;;;;;;;;19.64;29.38;101280.43;103625;1308;61336;-81
2023/03/13 01:04:17;;;;;;;;;;;;;;;19.65;29.42;101284.35;103797;1308;61307;-80
2023/03/13 01:06:43;;;;;;;;;;;;;;;19.64;29.42;101286.16;103468;1308;61183;-80
2023/03/13 01:09:09;;;;;;;;;;;;;;;19.63;29.35;101283.02;103606;1308;61462;-80
2023/03/13 01:11:35;;;;;;;;;;;;;;;19.64;29.40;101284.57;103789;1308;61272;-81
2023/03/13 01:14:02;;;;;;;;;;;;;;;19.63;29.40;101283.54;103612;1308;61707;-81
2023/03/13 01:16:29;;;;;;;;;;;;;;;19.63;29.46;101285.91;103570;1308;61742;-81
2023/03/13 01:18:56;;;;;;;;;;;;;;;19.63;29.37;101281.96;103590;1308;61367;-80
2023/03/13 01:21:22;;;;;;;;;;;;;;;19.62;29.40;101280.74;103750;1308;60418;-81
2023/03/13 01:23:48;;;;;;;;;;;;;;;19.62;29.46;101286.44;103425;1308;59394;-80
2023/03/13 01:26:14;;;;;;;;;;;;;;;19.62;29.35;101290.96;103518;1308;59393;-82
2023/03/13 01:28:39;;;;;;;;;;;;;;;19.61;29.35;101292.57;103730;1313;61263;-80
2023/03/13 01:31:17;;;;;;;;;;;;;;;19.62;29.37;101295.42;103645;1308;61303;-80
2023/03/13 01:33:43;;;;;;;;;;;;;;;19.60;29.43;101294.74;103548;1308;75369;-80
2023/03/13 01:36:09;;;;;;;;;;;;;;;19.60;29.37;101294.58;103586;1308;61231;-81
2023/03/13 01:38:35;;;;;;;;;;;;;;;19.61;29.31;101295.30;103617;1308;60166;-81
2023/03/13 01:41:01;;;;;;;;;;;;;;;19.60;29.40;101291.75;103614;1308;61255;-80
2023/03/13 01:43:28;;;;;;;;;;;;;;;19.60;29.41;101295.48;103625;1308;61301;-80
2023/03/13 01:45:56;;;;;;;;;;;;;;;19.59;29.40;101303.02;103581;1308;61084;-81
2023/03/13 01:48:25;;;;;;;;;;;;;;;19.59;29.45;101307.30;103720;1308;61313;-81
2023/03/13 01:50:51;;;;;;;;;;;;;;;19.59;29.39;101307.69;103575;1308;73452;-81
2023/03/13 01:53:16;;;;;;;;;;;;;;;19.59;29.37;101309.46;103537;1308;61349;-81
2023/03/13 01:55:42;;;;;;;;;;;;;;;19.59;29.58;101314.84;103774;1309;61270;-81
2023/03/13 01:58:08;;;;;;;;;;;;;;;19.58;29.39;101318.63;103581;1308;61304;-79
2023/03/13 02:00:34;;;;;;;;;;;;;;;19.58;29.48;101320.25;103549;1308;61518;-81
2023/03/13 02:03:02;;;;;;;;;;;;;;;19.58;29.37;101324.55;103783;1308;60070;-82
2023/03/13 02:05:28;;;;;;;;;;;;;;;19.58;29.36;101324.36;103560;1308;61317;-81
2023/03/13 02:08:12;;;;;;;;;;;;;;;19.57;29.26;101327.95;103569;1308;61286;-81
2023/03/13 02:10:38;;;;;;;;;;;;;;;19.56;29.44;101330.85;103765;1308;73488;-81
2023/03/13 02:13:04;;;;;;;;;;;;;;;19.57;29.39;101342.98;103759;1308;61241;-81
2023/03/13 02:15:30;;;;;;;;;;;;;;;19.56;29.50;101340.88;103602;1309;61441;-81
2023/03/13 02:17:55;;;;;;;;;;;;;;;19.55;29.34;101348.23;103633;1308;61397;-81
2023/03/13 02:20:21;;;;;;;;;;;;;;;19.55;29.43;101351.83;103417;1308;61355;-80
2023/03/13 02:22:56;;;;;;;;;;;;;;;19.54;29.37;101351.68;103809;1308;61301;-80
2023/03/13 02:25:24;;;;;;;;;;;;;;;19.54;29.40;101349.92;103569;1308;61339;-80
2023/03/13 02:27:52;;;;;;;;;;;;;;;19.54;29.36;101347.98;103740;1308;61160;-80
2023/03/13 02:30:21;;;;;;;;;;;;;;;19.54;29.39;101354.04;103800;1309;72588;-81
2023/03/13 02:32:49;;;;;;;;;;;;;;;19.53;29.40;101353.38;103566;1308;74502;-80
2023/03/13 02:35:15;;;;;;;;;;;;;;;19.53;29.33;101355.69;103619;1308;61351;-80
2023/03/13 02:37:42;;;;;;;;;;;;;;;19.53;29.40;101354.09;103627;1309;61252;-81
2023/03/13 02:40:12;;;;;;;;;;;;;;;19.52;29.44;101357.00;103577;1308;61093;-81
2023/03/13 02:42:40;;;;;;;;;;;;;;;19.52;29.36;101362.17;103729;1308;74563;-80
2023/03/13 02:45:06;;;;;;;;;;;;;;;19.52;29.47;101362.16;103750;1308;61279;-80
2023/03/13 02:47:32;;;;;;;;;;;;;;;19.52;29.43;101373.09;103602;1308;60893;-81
2023/03/13 02:49:58;;;;;;;;;;;;;;;19.52;29.34;101379.70;103406;1308;61401;-81
2023/03/13 02:52:25;;;;;;;;;;;;;;;19.51;29.38;101380.81;103540;1309;61374;-81
2023/03/13 02:54:52;;;;;;;;;;;;;;;19.51;29.32;101379.19;103627;1309;61276;-81
2023/03/13 02:57:18;;;;;;;;;;;;;;;19.51;29.43;101383.33;103615;1308;61268;-82
2023/03/13 02:59:43;;;;;;;;;;;;;;;19.50;29.30;101387.48;103598;1308;61414;-81
2023/03/13 03:02:09;;;;;;;;;;;;;;;19.50;29.20;101394.25;103632;1308;61288;-81
2023/03/13 03:04:35;;;;;;;;;;;;;;;19.50;29.34;101398.02;103374;1309;59310;-81
2023/03/13 03:07:01;;;;;;;;;;;;;;;19.49;29.24;101396.63;103632;1308;61329;-81
2023/03/13 03:09:27;;;;;;;;;;;;;;;19.49;29.25;101405.05;103554;1308;61305;-80
2023/03/13 03:11:55;;;;;;;;;;;;;;;19.49;29.37;101412.36;103546;1308;72560;-80
2023/03/13 03:14:20;;;;;;;;;;;;;;;19.47;29.44;101412.95;103621;1308;61760;-82
2023/03/13 03:16:46;;;;;;;;;;;;;;;19.47;29.32;101415.84;103451;1309;61410;-81
2023/03/13 03:19:12;;;;;;;;;;;;;;;19.48;29.42;101417.61;103619;1308;61320;-81
2023/03/13 03:21:40;;;;;;;;;;;;;;;19.47;29.31;101424.23;103591;1308;61317;-81
2023/03/13 03:24:06;;;;;;;;;;;;;;;19.47;29.38;101424.98;103841;1308;61243;-80
2023/03/13 03:26:32;;;;;;;;;;;;;;;19.46;29.28;101427.30;103799;1308;61777;-80
2023/03/13 03:28:57;;;;;;;;;;;;;;;19.46;29.43;101434.30;103599;1308;61396;-80
2023/03/13 03:31:23;;;;;;;;;;;;;;;19.46;29.27;101438.93;103578;1308;61280;-81
2023/03/13 03:33:49;;;;;;;;;;;;;;;19.45;29.23;101441.30;103649;1308;61305;-80
2023/03/13 03:36:15;;;;;;;;;;;;;;;19.45;29.28;101447.02;103750;1308;74547;-81
2023/03/13 03:38:41;;;;;;;;;;;;;;;19.44;29.24;101441.33;103593;1308;61185;-81
2023/03/13 03:41:07;;;;;;;;;;;;;;;19.44;29.19;101445.64;103595;1308;61332;-81
2023/03/13 03:43:33;;;;;;;;;;;;;;;19.44;29.26;101448.87;103609;1314;61281;-81
2023/03/13 03:45:59;;;;;;;;;;;;;;;19.43;29.16;101456.56;103592;1309;61263;-82
2023/03/13 03:48:25;;;;;;;;;;;;;;;19.42;29.27;101460.35;103611;1308;59332;-81
2023/03/13 03:50:51;;;;;;;;;;;;;;;19.42;29.20;101462.86;103812;1308;61926;-80
2023/03/13 03:53:23;;;;;;;;;;;;;;;19.42;29.28;101469.11;103413;1308;72496;-80
2023/03/13 03:55:49;;;;;;;;;;;;;;;19.42;29.23;101474.33;103576;1312;61324;-80
2023/03/13 03:58:15;;;;;;;;;;;;;;;19.42;29.24;101483.42;103800;1308;61781;-80
2023/03/13 04:00:44;;;;;;;;;;;;;;;19.41;29.23;101482.56;103807;1312;61438;-80
2023/03/13 04:03:10;;;;;;;;;;;;;;;19.41;29.20;101484.54;103570;1314;73616;-81
2023/03/13 04:05:35;;;;;;;;;;;;;;;19.41;29.11;101489.02;103589;1308;61419;-81
2023/03/13 04:08:01;;;;;;;;;;;;;;;19.40;29.34;101492.77;103610;1308;61429;-81
2023/03/13 04:10:27;;;;;;;;;;;;;;;19.40;29.21;101500.28;103773;1308;61493;-80
2023/03/13 04:12:55;;;;;;;;;;;;;;;19.40;29.21;101499.41;103570;1309;61310;-82
2023/03/13 04:15:20;;;;;;;;;;;;;;;19.40;29.29;101495.83;103778;1308;61339;-81
2023/03/13 04:17:46;;;;;;;;;;;;;;;19.39;29.11;101498.73;103613;1311;61335;-81
2023/03/13 04:20:13;;;;;;;;;;;;;;;19.39;29.26;101496.94;103619;1308;61290;-81
2023/03/13 04:22:39;;;;;;;;;;;;;;;19.39;29.22;101496.08;103576;1308;61167;-82
2023/03/13 04:25:05;;;;;;;;;;;;;;;19.38;29.17;101499.67;103648;1309;59956;-81
2023/03/13 04:27:31;;;;;;;;;;;;;;;19.38;29.24;101503.44;103559;1308;75311;-81
2023/03/13 04:29:57;;;;;;;;;;;;;;;19.38;29.27;101512.52;103546;1308;61275;-79
2023/03/13 04:32:23;;;;;;;;;;;;;;;19.37;29.17;101515.59;103571;1308;61260;-80
2023/03/13 04:34:52;;;;;;;;;;;;;;;19.37;29.08;101513.47;103772;1312;61189;-82
2023/03/13 04:37:18;;;;;;;;;;;;;;;19.38;29.19;101520.41;103792;1308;75291;-81
2023/03/13 04:39:43;;;;;;;;;;;;;;;19.36;29.25;101524.58;103395;1308;61284;-81
2023/03/13 04:42:09;;;;;;;;;;;;;;;19.36;29.27;101530.49;103580;1312;61316;-81
2023/03/13 04:44:35;;;;;;;;;;;;;;;19.36;29.26;101535.86;103607;1308;61307;-81
2023/03/13 04:47:00;;;;;;;;;;;;;;;19.35;29.35;101534.63;103591;1311;61372;-80
2023/03/13 04:49:26;;;;;;;;;;;;;;;19.34;29.43;101527.20;103818;1308;61282;-80
2023/03/13 04:51:52;;;;;;;;;;;;;;;19.33;29.42;101532.26;103516;1308;61125;-79
2023/03/13 04:54:18;;;;;;;;;;;;;;;19.31;29.44;101534.66;103591;1308;61284;-80
2023/03/13 04:56:43;;;;;;;;;;;;;;;19.31;29.52;101535.60;103560;1311;61337;-80
2023/03/13 04:59:13;;;;;;;;;;;;;;;19.29;29.43;101537.08;103612;1308;59392;-80
2023/03/13 05:01:39;;;;;;;;;;;;;;;19.27;29.36;101547.55;103739;1308;61530;-80
2023/03/13 05:04:06;;;;;;;;;;;;;;;19.25;29.48;101549.77;103552;1308;61431;-80
2023/03/13 05:06:31;;;;;;;;;;;;;;;19.24;29.42;101549.67;103415;1308;61247;-81
2023/03/13 05:08:57;;;;;;;;;;;;;;;19.21;29.40;101547.84;103482;1309;61384;-81
2023/03/13 05:11:22;;;;;;;;;;;;;;;19.19;29.39;101550.97;103621;1308;61307;-80
2023/03/13 05:13:49;;;;;;;;;;;;;;;19.17;29.28;101551.26;103785;1308;61462;-81
2023/03/13 05:16:15;;;;;;;;;;;;;;;19.15;29.28;101560.84;103778;1313;61364;-81
2023/03/13 05:18:40;;;;;;;;;;;;;;;19.13;29.25;101558.82;103637;1308;59979;-82
2023/03/13 05:21:06;;;;;;;;;;;;;;;19.10;29.18;101559.46;103820;1308;74735;-82
2023/03/13 05:23:32;;;;;;;;;;;;;;;19.07;29.20;101563.20;103626;1308;61291;-82
2023/03/13 05:25:57;;;;;;;;;;;;;;;19.05;29.10;101563.67;103784;1308;61193;-82
2023/03/13 05:28:24;;;;;;;;;;;;;;;19.01;29.18;101566.70;103520;1308;61298;-81
2023/03/13 05:30:49;;;;;;;;;;;;;;;18.99;29.13;101564.17;103600;1308;61279;-81
2023/03/13 05:33:15;;;;;;;;;;;;;;;18.96;29.14;101563.92;103588;1308;61422;-81
2023/03/13 05:35:41;;;;;;;;;;;;;;;18.94;29.17;101564.58;103528;1309;61343;-81
2023/03/13 05:38:07;;;;;;;;;;;;;;;18.92;29.01;101565.91;103644;1310;61431;-81
2023/03/13 05:40:32;;;;;;;;;;;;;;;18.90;29.07;101561.73;103632;1308;61330;-81
2023/03/13 05:42:58;;;;;;;;;;;;;;;18.87;29.06;101568.63;103686;1308;63266;-81
2023/03/13 05:45:24;;;;;;;;;;;;;;;18.85;29.05;101571.94;103646;1308;61304;-81
2023/03/13 05:47:50;;;;;;;;;;;;;;;18.83;29.15;101575.41;103521;1308;61279;-82
2023/03/13 05:50:15;;;;;;;;;;;;;;;18.82;29.05;101570.28;103521;1308;60073;-82
2023/03/13 05:52:41;;;;;;;;;;;;;;;18.81;29.21;101571.41;103505;1308;62186;-81
2023/03/13 05:55:07;;;;;;;;;;;;;;;18.79;29.16;101563.70;103716;1308;75824;-81
2023/03/13 05:57:32;;;;;;;;;;;;;;;18.74;29.08;101559.64;103205;1308;62363;-82
2023/03/13 05:59:59;;;;;;;;;;;;;;;18.64;29.08;101555.49;103223;1308;61492;-82
2023/03/13 06:02:24;;;;;;;;;;;;;;;18.59;29.15;101552.00;103485;1309;59984;-82
2023/03/13 06:04:50;;;;;;;;;;;;;;;18.56;29.25;101546.23;103109;1308;61301;-81
2023/03/13 06:07:17;;;;;;;;;;;;;;;18.55;29.16;101547.90;103582;1308;60025;-82
2023/03/13 06:09:42;;;;;;;;;;;;;;;18.56;29.33;101543.89;103624;1308;59282;-82
2023/03/13 06:12:08;;;;;;;;;;;;;;;18.60;29.27;101544.27;103530;1308;60437;-82
2023/03/13 06:14:34;;;;;;;;;;;;;;;18.62;29.32;101546.66;103560;1309;71443;-82
2023/03/13 06:16:59;;;;;;;;;;;;;;;18.65;29.26;101550.11;103497;1308;59700;-82
2023/03/13 06:19:25;;;;;;;;;;;;;;;18.68;29.38;101545.52;103521;1308;61298;-82
2023/03/13 06:21:50;;;;;;;;;;;;;;;18.70;29.35;101548.06;103214;1308;61412;-82
2023/03/13 06:24:16;;;;;;;;;;;;;;;18.71;29.36;101550.84;103584;1308;61424;-82
2023/03/13 06:26:41;;;;;;;;;;;;;;;18.72;29.40;101556.14;103519;1308;73386;-82
2023/03/13 06:29:07;;;;;;;;;;;;;;;18.74;29.42;101562.13;103450;1308;61556;-82
2023/03/13 06:31:33;;;;;;;;;;;;;;;18.75;29.37;101561.34;103716;1308;61196;-82
2023/03/13 06:33:58;;;;;;;;;;;;;;;18.77;29.47;101565.55;103604;1308;61317;-82
2023/03/13 06:36:24;;;;;;;;;;;;;;;18.79;29.38;101568.11;103690;1308;61298;-82
2023/03/13 06:38:49;;;;;;;;;;;;;;;18.81;29.46;101566.64;103610;1308;59375;-83
2023/03/13 06:41:15;;;;;;;;;;;;;;;18.81;29.43;101562.16;103541;1308;61269;-80
2023/03/13 06:43:41;;;;;;;;;;;;;;;18.82;29.45;101567.64;103530;1308;59662;-81
2023/03/13 06:46:06;;;;;;;;;;;;;;;18.82;29.53;101565.50;103569;1308;59397;-81
2023/03/13 06:48:32;;;;;;;;;;;;;;;18.82;29.66;101562.82;103565;1309;61308;-81
2023/03/13 06:50:58;;;;;;;;;;;;;;;18.82;29.55;101566.02;103573;1308;59340;-81
2023/03/13 06:53:23;;;;;;;;;;;;;;;18.82;29.58;101567.44;103598;1308;61329;-82
2023/03/13 06:55:49;;;;;;;;;;;;;;;18.80;29.49;101572.91;103573;1308;61317;-82
2023/03/13 06:58:15;;;;;;;;;;;;;;;18.75;29.55;101569.02;103643;1308;62155;-83
2023/03/13 07:00:42;;;;;;;;;;;;;;;18.73;29.72;101568.92;104183;1309;59693;-82
2023/03/13 07:03:08;;;;;;;;;;;;;;;18.73;29.71;101573.41;103871;1308;631565;-82
2023/03/13 07:05:34;;;;;;;;;;;;;;;18.75;29.94;101573.84;104036;1308;60366;-82
2023/03/13 07:08:00;;;;;;;;;;;;;;;18.77;29.75;101577.68;104208;1308;59311;-82
2023/03/13 07:10:25;;;;;;;;;;;;;;;18.78;29.80;101577.98;104258;1311;59440;-82
2023/03/13 07:12:51;;;;;;;;;;;;;;;18.80;29.86;101576.45;104143;1308;59918;-81
2023/03/13 07:15:17;;;;;;;;;;;;;;;18.84;29.83;101575.03;104274;1311;59671;-81
2023/03/13 07:17:42;;;;;;;;;;;;;;;18.89;29.88;101572.31;104098;1309;59784;-81
2023/03/13 07:20:09;;;;;;;;;;;;;;;18.94;29.95;101579.38;104280;1308;59332;-81
2023/03/13 07:22:36;;;;;;;;;;;;;;;19.00;29.95;101575.52;104214;1309;59356;-81
2023/03/13 07:25:03;;;;;;;;;;;;;;;19.06;29.83;101574.67;104405;1309;75323;-81
2023/03/13 07:27:29;;;;;;;;;;;;;;;19.12;29.95;101579.19;103977;1309;61173;-81
2023/03/13 07:29:54;;;;;;;;;;;;;;;19.17;29.87;101583.55;103565;1311;60565;-81
2023/03/13 07:32:20;;;;;;;;;;;;;;;19.23;29.95;101594.14;103587;1311;61362;-81
2023/03/13 07:34:47;;;;;;;;;;;;;;;19.29;29.99;101598.87;104368;1311;60614;-81
2023/03/13 07:37:13;;;;;;;;;;;;;;;19.34;29.88;101595.58;104318;1308;59381;-81
2023/03/13 07:39:39;;;;;;;;;;;;;;;19.38;29.88;101600.18;104230;1308;60104;-81
2023/03/13 07:42:05;;;;;;;;;;;;;;;19.42;30.04;101602.29;103858;1308;60136;-81
2023/03/13 07:44:30;;;;;;;;;;;;;;;19.47;29.90;101603.98;103583;1311;61504;-82
2023/03/13 07:46:58;;;;;;;;;;;;;;;19.52;29.90;101602.16;103553;1314;74351;-81
2023/03/13 07:49:23;;;;;;;;;;;;;;;19.55;29.78;101598.93;103748;1309;61317;-82
2023/03/13 07:51:49;;;;;;;;;;;;;;;19.59;29.97;101598.90;103664;1308;61406;-82
2023/03/13 07:54:15;;;;;;;;;;;;;;;19.62;29.95;101599.48;103621;1308;61152;-82
2023/03/13 07:56:41;;;;;;;;;;;;;;;19.53;29.89;101597.26;103576;1308;59754;-83
2023/03/13 07:59:06;;;;;;;;;;;;;;;19.38;29.88;101599.46;103735;1308;60566;-83
2023/03/13 08:01:32;;;;;;;;;;;;;;;19.28;29.90;101598.38;103651;1309;59808;-82
2023/03/13 08:04:00;;;;;;;;;;;;;;;19.23;30.05;101597.17;103631;1309;61044;-82
2023/03/13 08:06:26;;;;;;;;;;;;;;;19.20;29.99;101593.23;103644;1311;73482;-82
2023/03/13 08:08:55;;;;;;;;;;;;;;;19.16;30.02;101595.94;104079;1308;59893;-81
2023/03/13 08:11:21;;;;;;;;;;;;;;;19.14;30.01;101592.85;104071;1314;61046;-82
2023/03/13 08:13:48;;;;;;;;;;;;;;;19.14;30.12;101595.33;104243;1311;59555;-81
2023/03/13 08:16:18;;;;;;;;;;;;;;;19.14;30.14;101597.30;104086;1308;73613;-81
2023/03/13 08:18:44;;;;;;;;;;;;;;;19.16;30.18;101595.39;104276;1308;74120;-81
2023/03/13 08:21:10;;;;;;;;;;;;;;;19.19;29.98;101597.02;104227;1308;59860;-81
2023/03/13 08:23:36;;;;;;;;;;;;;;;19.21;30.11;101593.38;104265;1308;58794;-81
2023/03/13 08:26:20;;;;;;;;;;;;;;;19.23;30.16;101591.98;103976;1310;61266;-81
2023/03/13 08:28:46;;;;;;;;;;;;;;;19.25;30.22;101588.52;104415;1308;74408;-81
2023/03/13 08:31:12;;;;;;;;;;;;;;;19.26;30.25;101583.10;104317;1308;59248;-81
2023/03/13 08:33:38;;;;;;;;;;;;;;;19.28;30.23;101577.70;104144;1309;59412;-81
2023/03/13 08:36:23;;;;;;;;;;;;;;;19.27;30.27;101575.56;103533;1309;61398;-80
2023/03/13 08:38:49;;;;;;;;;;;;;;;19.28;30.22;101571.98;103609;1309;74615;-80
2023/03/13 08:41:19;;;;;;;;;;;;;;;19.28;30.16;101574.29;103550;1308;59822;-81
2023/03/13 08:43:44;;;;;;;;;;;;;;;19.26;30.07;101573.98;103653;1308;62068;-80
2023/03/13 08:46:10;;;;;;;;;;;;;;;19.27;30.15;101574.70;103459;1311;59377;-80
2023/03/13 08:48:35;;;;;;;;;;;;;;;19.25;30.04;101572.25;103568;1308;61247;-81
2023/03/13 08:51:02;;;;;;;;;;;;;;;19.23;29.95;101569.85;103696;1308;61330;-80
2023/03/13 08:53:27;;;;;;;;;;;;;;;19.24;29.86;101565.89;104423;1308;59532;-81
2023/03/13 08:55:53;;;;;;;;;;;;;;;19.27;30.00;101564.89;103583;1313;59859;-80
2023/03/13 08:58:19;;;;;;;;;;;;;;;19.30;29.87;101567.58;103548;1308;60409;-81
2023/03/13 09:00:44;;;;;;;;;;;;;;;19.34;29.77;101565.77;103543;1309;61438;-80
2023/03/13 09:03:10;;;;;;;;;;;;;;;19.36;29.83;101565.48;103738;1308;61482;-81
2023/03/13 09:05:40;;;;;;;;;;;;;;;19.29;29.68;101569.92;103589;1308;61358;-81
2023/03/13 09:08:06;;;;;;;;;;;;;;;19.26;30.04;101567.05;103724;1310;72613;-81
2023/03/13 09:10:32;;;;;;;;;;;;;;;19.27;30.08;101567.00;103788;1309;61311;-81
2023/03/13 09:12:57;;;;;;;;;;;;;;;19.28;30.00;101569.48;102916;1308;61372;-81
2023/03/13 09:15:23;;;;;;;;;;;;;;;19.28;30.13;101566.27;102756;1309;61429;-80
2023/03/13 09:17:49;;;;;;;;;;;;;;;19.29;30.09;101564.60;102738;1311;61316;-80
2023/03/13 09:20:15;;;;;;;;;;;;;;;19.31;30.16;101562.16;102958;1311;61467;-82
2023/03/13 09:22:40;;;;;;;;;;;;;;;19.33;30.23;101555.45;103409;1312;61352;-80
2023/03/13 09:25:06;;;;;;;;;;;;;;;19.33;30.15;101549.55;103283;1312;59524;-80
2023/03/13 09:27:31;;;;;;;;;;;;;;;19.35;30.09;101553.06;103314;1314;59689;-80
2023/03/13 09:29:57;;;;;;;;;;;;;;;19.36;30.08;101551.23;103264;1312;60164;-80
2023/03/13 09:32:24;;;;;;;;;;;;;;;19.36;30.12;101547.44;103239;1314;60014;-80
2023/03/13 09:34:50;;;;;;;;;;;;;;;19.37;30.07;101553.83;103287;1311;61521;-80
2023/03/13 09:37:16;;;;;;;;;;;;;;;19.38;30.13;101548.42;103175;1312;61461;-80
2023/03/13 09:39:41;;;;;;;;;;;;;;;19.39;30.13;101547.14;103294;1316;59391;-80
2023/03/13 09:42:12;;;;;;;;;;;;;;;19.41;30.09;101540.23;103217;1314;72660;-81
2023/03/13 09:44:42;;;;;;;;;;;;;;;19.43;30.09;101545.63;103285;1311;74462;-81
2023/03/13 09:47:18;;;;;;;;;;;;;;;19.45;30.13;101541.98;103282;1312;59972;-81
2023/03/13 09:49:50;;;;;;;;;;;;;;;19.45;30.17;101541.81;103314;1314;61429;-80
2023/03/13 09:52:21;;;;;;;;;;;;;;;19.43;30.07;101536.88;102977;1315;72546;-80
2023/03/13 09:54:54;;;;;;;;;;;;;;;19.42;30.06;101539.43;103542;1311;74576;-80
2023/03/13 09:57:37;;;;;;;;;;;;;;;19.42;30.05;101544.61;103592;1311;61589;-80
2023/03/13 10:00:05;;;;;;;;;;;;;;;19.43;30.02;101542.27;103400;1312;61368;-80
2023/03/13 10:02:32;;;;;;;;;;;;;;;19.43;29.97;101537.98;103658;1310;74660;-81
2023/03/13 10:05:07;;;;;;;;;;;;;;;19.40;30.24;101534.38;103250;1312;61244;-81
2023/03/13 10:07:32;;;;;;;;;;;;;;;19.33;30.33;101528.85;102530;1308;61343;-80
2023/03/13 10:09:59;;;;;;;;;;;;;;;19.29;30.45;101527.12;102789;1311;62009;-80
2023/03/13 10:12:28;;;;;;;;;;;;;;;19.30;30.65;101523.51;103190;1311;61339;-80
2023/03/13 10:15:12;;;;;;;;;;;;;;;19.30;30.59;101521.35;103210;1310;74337;-80
2023/03/13 10:17:47;;;;;;;;;;;;;;;19.26;30.52;101520.30;103366;1314;61124;-80
2023/03/13 10:20:19;;;;;;;;;;;;;;;19.25;30.65;101521.95;103398;1312;61413;-81
2023/03/13 10:22:45;;;;;;;;;;;;;;;19.25;30.66;101524.80;103442;1309;73009;-82
2023/03/13 10:25:29;;;;;;;;;;;;;;;19.24;30.68;101523.59;103728;1313;61367;-80
2023/03/13 10:27:54;;;;;;;;;;;;;;;19.22;30.80;101515.34;103544;1311;60041;-80
2023/03/13 10:30:23;;;;;;;;;;;;;;;19.22;30.75;101510.33;103516;1308;60248;-80
2023/03/13 10:32:49;;;;;;;;;;;;;;;19.16;30.74;101508.85;103629;1308;73429;-80
2023/03/13 10:35:22;;;;;;;;;;;;;;;19.14;30.53;101505.21;103443;1312;61511;-80
2023/03/13 10:37:47;;;;;;;;;;;;;;;19.06;30.56;101504.02;103503;1311;61213;-81
2023/03/13 10:40:18;;;;;;;;;;;;;;;19.05;30.45;101501.39;103476;1311;60138;-80
2023/03/13 10:42:44;;;;;;;;;;;;;;;19.06;30.63;101494.02;103650;1311;72335;-81
2023/03/13 10:45:15;;;;;;;;;;;;;;;19.07;30.59;101489.33;103533;1312;61199;-81
2023/03/13 10:47:40;;;;;;;;;;;;;;;19.05;30.58;101490.52;103666;1311;61235;-80
2023/03/13 10:50:06;;;;;;;;;;;;;;;19.04;30.66;101478.82;103418;1310;60507;-80
2023/03/13 10:52:45;;;;;;;;;;;;;;;19.04;30.64;101470.57;103614;1312;61256;-79
2023/03/13 10:55:12;;;;;;;;;;;;;;;19.05;30.65;101467.35;103477;1311;75636;-80
2023/03/13 10:57:37;;;;;;;;;;;;;;;19.05;30.66;101462.69;103521;1308;61320;-80
2023/03/13 11:00:08;;;;;;;;;;;;;;;19.03;30.58;101461.20;103666;1309;61287;-80
2023/03/13 11:02:35;;;;;;;;;;;;;;;18.95;30.41;101464.83;103514;1310;71796;-80
2023/03/13 11:05:02;;;;;;;;;;;;;;;18.88;30.45;101463.70;103518;1308;74729;-80
2023/03/13 11:07:29;;;;;;;;;;;;;;;18.84;30.44;101461.23;103676;1313;61427;-80
2023/03/13 11:09:58;;;;;;;;;;;;;;;18.80;30.44;101458.95;103487;1309;59450;-79
2023/03/13 11:12:23;;;;;;;;;;;;;;;18.74;30.49;101458.68;103602;1309;72708;-79
2023/03/13 11:14:55;;;;;;;;;;;;;;;18.67;30.52;101456.58;103645;1309;60146;-80
2023/03/13 11:17:35;;;;;;;;;;;;;;;18.66;30.66;101454.69;103829;1309;60285;-80
2023/03/13 11:20:12;;;;;;;;;;;;;;;18.67;30.53;101452.31;103556;1308;61157;-80
2023/03/13 11:22:57;;;;;;;;;;;;;;;18.67;30.55;101453.88;103667;1308;72592;-80
2023/03/13 11:25:42;;;;;;;;;;;;;;;18.70;30.58;101452.14;103708;1308;76292;-79
2023/03/13 11:28:26;;;;;;;;;;;;;;;18.73;30.73;101451.59;104472;1308;61190;-80
2023/03/13 11:31:15;;;;;;;;;;;;;;;18.79;30.81;101452.39;104483;1308;61427;-81
2023/03/13 11:33:57;;;;;;;;;;;;;;;18.79;30.76;101448.14;103738;1317;73650;-81
2023/03/13 11:36:29;;;;;;;;;;;;;;;18.75;30.66;101445.29;103157;1316;75446;-80
2023/03/13 11:38:57;;;;;;;;;;;;;;;18.71;30.65;101443.89;102868;1317;61383;-80
2023/03/13 11:41:41;;;;;;;;;;;;;;;18.71;30.79;101448.31;103547;1318;59477;-80
2023/03/13 11:44:13;;;;;;;;;;;;;;;18.75;30.80;101439.58;102854;1317;71534;-80
2023/03/13 11:46:42;;;;;;;;;;;;;;;18.76;30.75;101433.62;102833;1317;75321;-80
2023/03/13 11:49:12;;;;;;;;;;;;;;;18.76;30.73;101434.51;102811;1316;61244;-81
2023/03/13 11:51:48;;;;;;;;;;;;;;;18.79;30.71;101434.02;102753;1320;61589;-81
2023/03/13 11:54:25;;;;;;;;;;;;;;;18.82;30.75;101428.14;103561;1320;72792;-81
2023/03/13 11:56:58;;;;;;;;;;;;;;;18.82;30.70;101428.15;102612;1317;74593;-80
2023/03/13 11:59:42;;;;;;;;;;;;;;;18.71;30.50;101428.18;102871;1320;61854;-80
2023/03/13 12:02:27;;;;;;;;;;;;;;;18.62;30.35;101427.20;102834;1317;61334;-80
2023/03/13 12:04:59;;;;;;;;;;;;;;;18.51;30.21;101419.23;102478;1318;73538;-83
2023/03/13 12:07:28;;;;;;;;;;;;;;;18.41;30.01;101417.02;103073;1320;74010;-80
2023/03/13 12:10:03;;;;;;;;;;;;;;;18.33;29.92;101418.17;103153;1320;60141;-81
2023/03/13 12:12:47;;;;;;;;;;;;;;;18.28;30.11;101417.00;103887;1309;60160;-81
2023/03/13 12:15:21;;;;;;;;;;;;;;;18.27;30.13;101414.71;103584;1316;72805;-81
2023/03/13 12:17:48;;;;;;;;;;;;;;;18.23;29.86;101404.55;103771;1309;75365;-81
2023/03/13 12:20:17;;;;;;;;;;;;;;;18.20;29.91;101405.60;103719;1309;59739;-81
2023/03/13 12:23:00;;;;;;;;;;;;;;;18.23;29.88;101399.41;103721;1312;61304;-80
2023/03/13 12:25:31;;;;;;;;;;;;;;;18.30;30.03;101402.11;103632;1313;73494;-81
2023/03/13 12:28:04;;;;;;;;;;;;;;;18.35;30.04;101399.00;103466;1314;74573;-81